Naples, Italy

12:40 AM CEST on July 27, 2016 (GMT +0200)
Calata San Marco | | Change Station

Elev 0 ft 40.84 °N, 14.25 °E | Updated 5 minutes ago

Scattered Clouds
Scattered Clouds
81.7 °F
Feels Like 84 °F
N
0.6
Wind Variable Wind from North
Gusts 3.1 mph

Today
High -- | Low -- °F
--% Chance of Precip.
Yesterday
High -- | Low -- °F
Precip. -- in
Pressure 29.98 in
Visibility 6.2 miles
Clouds Scattered Clouds 5000 ft
Heat Index 84 °F
Dew Point 68 °F
Humidity 62%
Rainfall Not available.
Snow Depth Not available.
5:54 AM 8:23 PM
Waning Gibbous, 50% visible
METAR LIRN 262220Z 04003KT 9999 SCT050 25/20 Q1015 NOSIG
Pressure 29.98 in
Visibility 6.2 miles
Clouds Scattered Clouds 5000 ft
Heat Index 84 °F
Dew Point 68 °F
Humidity 62%
Rainfall Not available.
Snow Depth Not available.
5:54 AM 8:23 PM
Waning Gibbous, 50% visible
METAR LIRN 262220Z 04003KT 9999 SCT050 25/20 Q1015 NOSIG

10-Day Weather Forecast

×

Almanac

Astronomy

Jul. 27, 2016 Rise Set
Actual Time
Civil Twilight
Nautical Twilight
Astronomical Twilight
Moon
Length of Visible Light
Length of Day
Tomorrow will be .
, % of the Moon is Illuminated

Today's Extremes

Country Highs Country Lows

Community

WunderPhotos

Upload Photos

1,927,725 photos uploaded!

WunderBlog® & News

Nearby

Air Quality

  Air Quality AQ Index Pollutant
Not available.

Snow Depth

Station Depth Elevation

Earthquake Activity

City Distance Mag. Time & Date
Minimum magnitude displayed is 2.5.

Coastal Water Temperatures

Place Temperature

Stations

Nearby Weather Stations

Station Location Temp. Windchill Dew Point Humidity Wind Precip. Elev Updated Type